Time;durP1;ratioP1;P1;durP2;ratioP2;P2;SDS_P1;SDS_P2;PMS_P1;PMS_P2;Temp;Humidity;BMP_temperature;BMP_pressure;BME280_temperature;BME280_humidity;BME280_pressure;Samples;Min_cycle;Max_cycle;Signal;HPM_P1;HPM_P2
2023/08/05 00:02:59;;;;;;;3.37;3.07;;;;;;;;;;6235622;28;20229;-68
2023/08/05 00:06:00;;;;;;;3.63;2.97;;;;;;;;;;6247454;28;20182;-68
2023/08/05 00:09:03;;;;;;;4.40;3.10;;;;;;;;;;6251428;28;20238;-68
2023/08/05 00:12:04;;;;;;;6.20;3.50;;;;;;;;;;6256804;28;20244;-68
2023/08/05 00:15:05;;;;;;;3.23;2.93;;;;;;;;;;6235693;28;20213;-68
2023/08/05 00:18:06;;;;;;;5.33;3.30;;;;;;;;;;6248444;28;20201;-68
2023/08/05 00:21:07;;;;;;;7.63;3.87;;;;;;;;;;6246391;28;20237;-68
2023/08/05 00:24:09;;;;;;;3.47;3.17;;;;;;;;;;6250240;28;20216;-68
2023/08/05 00:27:10;;;;;;;4.07;3.43;;;;;;;;;;6258763;28;20194;-68
2023/08/05 00:30:11;;;;;;;5.73;3.77;;;;;;;;;;6257332;28;20212;-68
2023/08/05 00:33:12;;;;;;;6.93;3.70;;;;;;;;;;6268257;28;20190;-67
2023/08/05 00:36:13;;;;;;;4.30;3.40;;;;;;;;;;6239324;28;20265;-67
2023/08/05 00:39:14;;;;;;;6.60;4.07;;;;;;;;;;6247173;28;20214;-67
2023/08/05 00:42:18;;;;;;;4.33;3.50;;;;;;;;;;6235127;28;20245;-67
2023/08/05 00:45:19;;;;;;;5.00;3.03;;;;;;;;;;6235855;28;20187;-67
2023/08/05 00:48:22;;;;;;;5.60;3.73;;;;;;;;;;6242940;28;20185;-68
2023/08/05 00:51:23;;;;;;;3.83;3.53;;;;;;;;;;6250145;28;20201;-67
2023/08/05 00:54:24;;;;;;;4.03;3.63;;;;;;;;;;6248440;28;20210;-68
2023/08/05 00:57:25;;;;;;;3.90;3.50;;;;;;;;;;6251400;28;20206;-67
2023/08/05 01:00:26;;;;;;;4.10;3.67;;;;;;;;;;6258259;28;20236;-67
2023/08/05 01:03:27;;;;;;;3.80;3.50;;;;;;;;;;6250028;28;20305;-68
2023/08/05 01:06:28;;;;;;;6.33;3.90;;;;;;;;;;6236116;28;20237;-67
2023/08/05 01:09:29;;;;;;;7.17;4.40;;;;;;;;;;6245077;28;20254;-67
2023/08/05 01:12:30;;;;;;;4.83;3.67;;;;;;;;;;6242475;28;20233;-68
2023/08/05 01:15:31;;;;;;;4.80;3.40;;;;;;;;;;6259114;28;20224;-67
2023/08/05 01:18:33;;;;;;;4.80;3.60;;;;;;;;;;6247252;28;20293;-67
2023/08/05 01:21:34;;;;;;;7.50;3.83;;;;;;;;;;6263937;28;20252;-66
2023/08/05 01:24:39;;;;;;;6.73;3.63;;;;;;;;;;6256300;28;20218;-68
2023/08/05 01:27:41;;;;;;;3.63;3.33;;;;;;;;;;6263058;28;20189;-70
2023/08/05 01:30:43;;;;;;;5.20;3.60;;;;;;;;;;6244895;28;20189;-68
2023/08/05 01:33:44;;;;;;;3.60;3.17;;;;;;;;;;6272605;28;20216;-67
2023/08/05 01:36:45;;;;;;;4.23;3.50;;;;;;;;;;6244463;28;20216;-67
2023/08/05 01:39:46;;;;;;;6.53;3.57;;;;;;;;;;6242531;28;20190;-67
2023/08/05 01:42:47;;;;;;;4.50;3.57;;;;;;;;;;6256674;28;20802;-67
2023/08/05 01:45:48;;;;;;;4.27;3.00;;;;;;;;;;6268238;28;20255;-68
2023/08/05 01:48:49;;;;;;;4.90;3.10;;;;;;;;;;6266065;28;20182;-68
2023/08/05 01:51:50;;;;;;;4.07;3.33;;;;;;;;;;6248718;28;20187;-68
2023/08/05 01:54:51;;;;;;;5.33;4.03;;;;;;;;;;6253399;28;20202;-67
2023/08/05 01:57:52;;;;;;;6.00;4.43;;;;;;;;;;6260112;28;20173;-67
2023/08/05 02:00:54;;;;;;;6.27;4.80;;;;;;;;;;6252483;28;20210;-68
2023/08/05 02:03:55;;;;;;;5.60;4.40;;;;;;;;;;6261005;28;20207;-68
2023/08/05 02:06:56;;;;;;;7.50;4.73;;;;;;;;;;6249110;28;20194;-67
2023/08/05 02:09:57;;;;;;;6.97;4.50;;;;;;;;;;6254906;28;20572;-67
2023/08/05 02:12:58;;;;;;;8.23;4.60;;;;;;;;;;6261575;28;20197;-68
2023/08/05 02:15:59;;;;;;;6.47;4.70;;;;;;;;;;6241536;28;20190;-67
2023/08/05 02:19:00;;;;;;;5.53;4.10;;;;;;;;;;6248648;28;20189;-67
2023/08/05 02:22:01;;;;;;;5.17;4.27;;;;;;;;;;6260458;28;20230;-67
2023/08/05 02:25:02;;;;;;;5.80;4.90;;;;;;;;;;6234578;28;20223;-68
2023/08/05 02:28:03;;;;;;;5.77;4.93;;;;;;;;;;6252485;28;20200;-68
2023/08/05 02:31:04;;;;;;;7.53;4.40;;;;;;;;;;6264966;28;20261;-68
2023/08/05 02:34:05;;;;;;;5.03;4.03;;;;;;;;;;6271069;28;20325;-68
2023/08/05 02:37:06;;;;;;;4.50;4.10;;;;;;;;;;6262974;28;20186;-68
2023/08/05 02:40:07;;;;;;;7.67;4.73;;;;;;;;;;6254403;28;20183;-67
2023/08/05 02:43:08;;;;;;;5.37;4.37;;;;;;;;;;6249584;28;20205;-68
2023/08/05 02:46:09;;;;;;;7.47;5.30;;;;;;;;;;6247117;28;20182;-67
2023/08/05 02:49:10;;;;;;;6.57;5.53;;;;;;;;;;6252471;28;20179;-68
2023/08/05 02:52:11;;;;;;;7.07;5.27;;;;;;;;;;6252287;28;20261;-68
2023/08/05 02:55:12;;;;;;;9.10;5.50;;;;;;;;;;6253871;28;20209;-68
2023/08/05 02:58:19;;;;;;;7.37;5.00;;;;;;;;;;6254632;28;20251;-68
2023/08/05 03:01:20;;;;;;;5.73;4.73;;;;;;;;;;6258996;28;20198;-67
2023/08/05 03:04:21;;;;;;;5.10;4.60;;;;;;;;;;6256742;28;20217;-68
2023/08/05 03:07:22;;;;;;;5.77;5.17;;;;;;;;;;6255441;28;20205;-68
2023/08/05 03:10:23;;;;;;;7.13;4.57;;;;;;;;;;6256050;28;20213;-68
2023/08/05 03:13:24;;;;;;;6.60;5.20;;;;;;;;;;6247622;28;20194;-68
2023/08/05 03:16:25;;;;;;;8.37;4.93;;;;;;;;;;6244801;28;20216;-68
2023/08/05 03:19:26;;;;;;;6.90;4.80;;;;;;;;;;6246532;28;20210;-68
2023/08/05 03:22:27;;;;;;;7.30;5.33;;;;;;;;;;6255383;28;20242;-68
2023/08/05 03:25:28;;;;;;;5.23;4.30;;;;;;;;;;6266817;28;20263;-68
2023/08/05 03:28:29;;;;;;;6.73;5.10;;;;;;;;;;6252794;28;20216;-68
2023/08/05 03:31:31;;;;;;;5.60;4.33;;;;;;;;;;6247367;28;20208;-68
2023/08/05 03:34:32;;;;;;;6.67;4.20;;;;;;;;;;6260300;28;20194;-68
2023/08/05 03:37:33;;;;;;;5.57;4.73;;;;;;;;;;6253973;28;20201;-68
2023/08/05 03:40:34;;;;;;;6.77;5.03;;;;;;;;;;6241225;28;20202;-68
2023/08/05 03:43:35;;;;;;;5.07;4.33;;;;;;;;;;6268926;28;20210;-68
2023/08/05 03:46:37;;;;;;;5.93;4.63;;;;;;;;;;6254088;28;20197;-68
2023/08/05 03:49:39;;;;;;;5.40;4.53;;;;;;;;;;6246962;28;20234;-68
2023/08/05 03:52:40;;;;;;;7.63;4.80;;;;;;;;;;6254995;28;20229;-68
2023/08/05 03:55:41;;;;;;;5.63;4.40;;;;;;;;;;6261125;28;20247;-68
2023/08/05 03:58:43;;;;;;;10.77;4.87;;;;;;;;;;6252129;28;20193;-68
2023/08/05 04:01:44;;;;;;;11.77;5.73;;;;;;;;;;6255319;28;20201;-68
2023/08/05 04:04:45;;;;;;;7.33;4.73;;;;;;;;;;6264908;28;20329;-68
2023/08/05 04:07:47;;;;;;;4.57;4.17;;;;;;;;;;6257979;28;20190;-68
2023/08/05 04:10:48;;;;;;;6.67;5.20;;;;;;;;;;6257961;28;20191;-68
2023/08/05 04:13:51;;;;;;;8.07;5.00;;;;;;;;;;6247470;28;20195;-68
2023/08/05 04:16:54;;;;;;;5.33;4.83;;;;;;;;;;6243596;28;20199;-68
2023/08/05 04:19:56;;;;;;;4.53;4.13;;;;;;;;;;6265554;28;20196;-68
2023/08/05 04:22:57;;;;;;;7.10;4.67;;;;;;;;;;6252075;28;20268;-68
2023/08/05 04:25:59;;;;;;;5.60;4.43;;;;;;;;;;6252533;28;20195;-68
2023/08/05 04:29:00;;;;;;;4.20;3.80;;;;;;;;;;6251646;28;20210;-68
2023/08/05 04:32:01;;;;;;;6.07;4.30;;;;;;;;;;6250137;28;20272;-68
2023/08/05 04:35:03;;;;;;;4.53;4.00;;;;;;;;;;6257057;28;20276;-68
2023/08/05 04:38:04;;;;;;;7.47;4.23;;;;;;;;;;6256842;28;20274;-68
2023/08/05 04:41:05;;;;;;;6.27;4.50;;;;;;;;;;6257451;28;20189;-68
2023/08/05 04:44:06;;;;;;;6.27;4.40;;;;;;;;;;6259920;28;20213;-68
2023/08/05 04:47:10;;;;;;;4.73;4.27;;;;;;;;;;6250529;28;20194;-68
2023/08/05 04:50:11;;;;;;;4.33;3.43;;;;;;;;;;6258820;28;20191;-67
2023/08/05 04:53:16;;;;;;;3.13;2.83;;;;;;;;;;6256879;28;20194;-67
2023/08/05 04:56:23;;;;;;;3.90;2.70;;;;;;;;;;6251338;28;20187;-67
2023/08/05 04:59:24;;;;;;;4.63;3.40;;;;;;;;;;6251326;28;20199;-67
2023/08/05 05:02:25;;;;;;;3.17;2.87;;;;;;;;;;6256371;28;20209;-67
2023/08/05 05:05:26;;;;;;;3.93;2.50;;;;;;;;;;6249525;28;20241;-67
2023/08/05 05:08:27;;;;;;;3.90;2.97;;;;;;;;;;6255966;28;20190;-68
2023/08/05 05:11:28;;;;;;;4.07;3.37;;;;;;;;;;6255707;28;20187;-68
2023/08/05 05:14:33;;;;;;;3.70;2.27;;;;;;;;;;6256276;28;20187;-68
2023/08/05 05:17:34;;;;;;;5.03;2.30;;;;;;;;;;6270602;28;20241;-68
2023/08/05 05:20:35;;;;;;;3.73;2.23;;;;;;;;;;6268744;28;20286;-68
2023/08/05 05:23:38;;;;;;;2.50;1.70;;;;;;;;;;6246864;28;20309;-68
2023/08/05 05:26:39;;;;;;;3.47;2.00;;;;;;;;;;6243665;28;20217;-68
2023/08/05 05:29:44;;;;;;;6.80;2.17;;;;;;;;;;6253560;28;20194;-68
2023/08/05 05:32:45;;;;;;;1.97;1.77;;;;;;;;;;6268432;28;20282;-68
2023/08/05 05:35:46;;;;;;;2.70;2.03;;;;;;;;;;6237601;28;20202;-68
2023/08/05 05:38:47;;;;;;;2.27;2.07;;;;;;;;;;6248069;28;20194;-68
2023/08/05 05:41:48;;;;;;;3.93;1.70;;;;;;;;;;6254304;28;20244;-68
2023/08/05 05:44:52;;;;;;;1.60;1.40;;;;;;;;;;6256187;28;20241;-68
2023/08/05 05:47:53;;;;;;;1.53;1.43;;;;;;;;;;6248978;28;20192;-68
2023/08/05 05:50:54;;;;;;;1.60;1.50;;;;;;;;;;6261542;28;20190;-68
2023/08/05 05:53:57;;;;;;;1.73;1.63;;;;;;;;;;6254847;28;20194;-68
2023/08/05 05:56:58;;;;;;;4.63;2.20;;;;;;;;;;6266686;28;20198;-68
2023/08/05 06:00:01;;;;;;;2.10;1.50;;;;;;;;;;6254253;28;20194;-68
2023/08/05 06:03:02;;;;;;;1.43;1.20;;;;;;;;;;6254891;28;20304;-68
2023/08/05 06:06:03;;;;;;;1.57;1.13;;;;;;;;;;6248668;28;20184;-68
2023/08/05 06:09:05;;;;;;;1.30;1.20;;;;;;;;;;6248999;28;20182;-68
2023/08/05 06:12:10;;;;;;;1.37;1.27;;;;;;;;;;6246020;28;20186;-68
2023/08/05 06:15:11;;;;;;;1.40;1.30;;;;;;;;;;6250758;28;20194;-68
2023/08/05 06:18:12;;;;;;;2.23;1.23;;;;;;;;;;6246654;28;20187;-68
2023/08/05 06:21:13;;;;;;;1.40;1.30;;;;;;;;;;6234239;28;20245;-68
2023/08/05 06:24:14;;;;;;;1.00;0.90;;;;;;;;;;6258022;28;20233;-68
2023/08/05 06:27:15;;;;;;;1.30;1.20;;;;;;;;;;6260090;28;20193;-67
2023/08/05 06:30:16;;;;;;;1.10;1.00;;;;;;;;;;6253859;28;20186;-67
2023/08/05 06:33:17;;;;;;;1.40;1.30;;;;;;;;;;6262178;28;20185;-68
2023/08/05 06:36:18;;;;;;;1.17;1.07;;;;;;;;;;6248434;28;20218;-68
2023/08/05 06:39:19;;;;;;;0.80;0.80;;;;;;;;;;6247316;28;20281;-68
2023/08/05 06:42:23;;;;;;;0.90;0.90;;;;;;;;;;6237641;28;20209;-68
2023/08/05 06:45:24;;;;;;;1.30;1.03;;;;;;;;;;6252717;28;20278;-68
2023/08/05 06:48:25;;;;;;;3.20;1.40;;;;;;;;;;6246753;28;20210;-68
2023/08/05 06:51:27;;;;;;;2.50;1.40;;;;;;;;;;6246578;28;20194;-68
2023/08/05 06:54:28;;;;;;;2.37;1.50;;;;;;;;;;6247988;28;20199;-68
2023/08/05 06:57:29;;;;;;;1.07;0.93;;;;;;;;;;6245850;28;20224;-68
2023/08/05 07:00:30;;;;;;;1.63;1.10;;;;;;;;;;6282406;28;20221;-68
2023/08/05 07:03:31;;;;;;;1.70;1.30;;;;;;;;;;6256952;28;20288;-67
2023/08/05 07:06:32;;;;;;;2.30;1.63;;;;;;;;;;6234097;28;20183;-67
2023/08/05 07:09:33;;;;;;;2.77;1.50;;;;;;;;;;6262145;28;20219;-67
2023/08/05 07:12:35;;;;;;;1.67;1.30;;;;;;;;;;6244474;28;20244;-67
2023/08/05 07:15:37;;;;;;;1.40;1.30;;;;;;;;;;6251812;28;20288;-67
2023/08/05 07:18:38;;;;;;;1.27;1.13;;;;;;;;;;6251041;28;20250;-68
2023/08/05 07:21:39;;;;;;;1.20;1.10;;;;;;;;;;6242535;28;20238;-68
2023/08/05 07:24:40;;;;;;;3.03;1.20;;;;;;;;;;6245423;28;20319;-67
2023/08/05 07:27:41;;;;;;;3.63;1.40;;;;;;;;;;6254158;28;20224;-67
2023/08/05 07:30:42;;;;;;;1.27;1.10;;;;;;;;;;6253640;28;20240;-68
2023/08/05 07:33:46;;;;;;;2.53;1.07;;;;;;;;;;6242565;28;20195;-68
2023/08/05 07:36:47;;;;;;;1.83;1.03;;;;;;;;;;6248730;28;20202;-68
2023/08/05 07:39:49;;;;;;;1.33;1.23;;;;;;;;;;6246196;28;20201;-68
2023/08/05 07:42:50;;;;;;;1.43;1.13;;;;;;;;;;6229572;28;20317;-68
2023/08/05 07:45:52;;;;;;;1.27;0.90;;;;;;;;;;6254591;28;20191;-68
2023/08/05 07:48:55;;;;;;;1.07;0.97;;;;;;;;;;6245663;28;20282;-68
2023/08/05 07:51:56;;;;;;;1.20;1.10;;;;;;;;;;6246379;28;20199;-68
2023/08/05 07:54:58;;;;;;;2.03;1.23;;;;;;;;;;6246851;28;20208;-68
2023/08/05 07:57:59;;;;;;;1.23;1.13;;;;;;;;;;6248972;28;20249;-68
2023/08/05 08:01:00;;;;;;;1.23;1.13;;;;;;;;;;6251183;28;20198;-68
2023/08/05 08:04:03;;;;;;;1.73;1.27;;;;;;;;;;6252804;28;20217;-68
2023/08/05 08:07:04;;;;;;;0.87;0.87;;;;;;;;;;6256360;28;20193;-68
2023/08/05 08:10:06;;;;;;;2.50;1.20;;;;;;;;;;6246005;28;20214;-68
2023/08/05 08:13:07;;;;;;;2.17;1.00;;;;;;;;;;6259889;28;20198;-68
2023/08/05 08:16:08;;;;;;;2.13;1.40;;;;;;;;;;6257512;28;20193;-68
2023/08/05 08:19:10;;;;;;;1.10;1.00;;;;;;;;;;6253524;28;20202;-68
2023/08/05 08:22:11;;;;;;;0.97;0.90;;;;;;;;;;6253442;28;20257;-67
2023/08/05 08:25:12;;;;;;;1.23;1.10;;;;;;;;;;6247617;28;20308;-67
2023/08/05 08:28:13;;;;;;;0.90;0.90;;;;;;;;;;6249764;28;20191;-67
2023/08/05 08:31:14;;;;;;;1.10;0.97;;;;;;;;;;6256307;28;20285;-67
2023/08/05 08:34:15;;;;;;;2.07;1.17;;;;;;;;;;6244760;28;20197;-68
2023/08/05 08:37:16;;;;;;;1.50;1.20;;;;;;;;;;6242275;28;20186;-68
2023/08/05 08:40:18;;;;;;;2.77;1.23;;;;;;;;;;6249626;28;20231;-68
2023/08/05 08:43:20;;;;;;;1.10;1.00;;;;;;;;;;6252927;28;20218;-67
2023/08/05 08:46:21;;;;;;;1.30;1.20;;;;;;;;;;6253443;28;20324;-68
2023/08/05 08:49:23;;;;;;;1.00;1.00;;;;;;;;;;6256467;28;20192;-68
2023/08/05 08:52:25;;;;;;;1.20;0.83;;;;;;;;;;6269862;28;20217;-67
2023/08/05 08:55:27;;;;;;;0.93;0.90;;;;;;;;;;6262333;28;20194;-68
2023/08/05 08:58:28;;;;;;;1.30;0.80;;;;;;;;;;6247983;28;20277;-68
2023/08/05 09:01:30;;;;;;;1.63;0.80;;;;;;;;;;6245195;28;20289;-67
2023/08/05 09:04:31;;;;;;;2.00;0.80;;;;;;;;;;6256582;28;20229;-68
2023/08/05 09:07:32;;;;;;;1.27;0.70;;;;;;;;;;6255404;28;20277;-67
2023/08/05 09:10:33;;;;;;;1.23;0.90;;;;;;;;;;6263993;28;20239;-68
2023/08/05 09:13:35;;;;;;;1.03;0.87;;;;;;;;;;6244535;28;20202;-68
2023/08/05 09:16:56;;;;;;;2.10;0.80;;;;;;;;;;6252148;28;20193;-67
2023/08/05 09:19:57;;;;;;;1.53;1.13;;;;;;;;;;6261524;28;20264;-67
2023/08/05 09:23:01;;;;;;;1.03;0.87;;;;;;;;;;6247853;28;20324;-68
2023/08/05 09:26:02;;;;;;;0.83;0.83;;;;;;;;;;6254318;28;20186;-68
2023/08/05 09:29:04;;;;;;;0.93;0.83;;;;;;;;;;6248085;28;20224;-68
2023/08/05 09:32:05;;;;;;;1.00;0.97;;;;;;;;;;6272442;28;20185;-68
2023/08/05 09:35:10;;;;;;;0.67;0.67;;;;;;;;;;6249858;28;20197;-67
2023/08/05 09:38:11;;;;;;;0.73;0.73;;;;;;;;;;6263208;28;20187;-68
2023/08/05 09:41:12;;;;;;;1.63;0.70;;;;;;;;;;6241564;28;20194;-68
2023/08/05 09:44:13;;;;;;;0.60;0.50;;;;;;;;;;6243974;28;20242;-68
2023/08/05 09:47:18;;;;;;;1.13;0.60;;;;;;;;;;6254285;28;20187;-68
2023/08/05 09:50:20;;;;;;;1.47;0.70;;;;;;;;;;6255229;28;20188;-68
2023/08/05 09:53:22;;;;;;;0.90;0.90;;;;;;;;;;6263144;28;20198;-68
2023/08/05 09:56:23;;;;;;;1.00;0.70;;;;;;;;;;6260491;28;20207;-68
2023/08/05 09:59:25;;;;;;;0.70;0.70;;;;;;;;;;6249286;28;20191;-68
2023/08/05 10:02:26;;;;;;;0.70;0.70;;;;;;;;;;6267025;28;20194;-68
2023/08/05 10:05:27;;;;;;;2.23;0.90;;;;;;;;;;6265446;28;20189;-68
2023/08/05 10:08:28;;;;;;;1.83;0.40;;;;;;;;;;6248310;28;20212;-68
2023/08/05 10:11:30;;;;;;;0.63;0.60;;;;;;;;;;6248464;28;20193;-68
2023/08/05 10:14:31;;;;;;;1.00;0.90;;;;;;;;;;6266003;28;20183;-68
2023/08/05 10:17:32;;;;;;;2.00;0.70;;;;;;;;;;6247493;28;20205;-68
2023/08/05 10:20:37;;;;;;;2.37;0.60;;;;;;;;;;6262510;28;20200;-68
2023/08/05 10:23:38;;;;;;;0.90;0.50;;;;;;;;;;6256802;28;20219;-68
2023/08/05 10:26:45;;;;;;;0.67;0.60;;;;;;;;;;6239269;28;20205;-68
2023/08/05 10:29:53;;;;;;;0.63;0.60;;;;;;;;;;6248887;28;20196;-67
2023/08/05 10:32:55;;;;;;;0.47;0.47;;;;;;;;;;6249095;28;20258;-67
2023/08/05 10:36:06;;;;;;;0.90;0.50;;;;;;;;;;6251687;28;20187;-67
2023/08/05 10:39:27;;;;;;;0.70;0.50;;;;;;;;;;6262081;28;20192;-66
2023/08/05 10:42:28;;;;;;;1.30;0.60;;;;;;;;;;6249803;28;20187;-65
2023/08/05 10:45:29;;;;;;;1.73;0.53;;;;;;;;;;6260083;28;20217;-67
2023/08/05 10:48:31;;;;;;;1.10;0.60;;;;;;;;;;6249241;28;20210;-67
2023/08/05 10:51:33;;;;;;;2.17;0.70;;;;;;;;;;6247373;28;20186;-67
2023/08/05 10:54:35;;;;;;;1.23;0.53;;;;;;;;;;6248846;28;20202;-67
2023/08/05 10:57:39;;;;;;;1.53;0.67;;;;;;;;;;6254217;28;20206;-67
2023/08/05 11:00:41;;;;;;;0.87;0.70;;;;;;;;;;6261964;28;20205;-67
2023/08/05 11:03:42;;;;;;;2.07;0.90;;;;;;;;;;6251774;28;20298;-67
2023/08/05 11:06:44;;;;;;;1.17;1.00;;;;;;;;;;6250964;28;20245;-66
2023/08/05 11:09:46;;;;;;;0.73;0.70;;;;;;;;;;6249472;28;20241;-66
2023/08/05 11:12:47;;;;;;;1.00;0.90;;;;;;;;;;6254152;28;20195;-66
2023/08/05 11:16:07;;;;;;;1.13;1.00;;;;;;;;;;6241334;28;20237;-67
2023/08/05 11:19:09;;;;;;;1.13;0.77;;;;;;;;;;6267073;28;20182;-69
2023/08/05 11:22:11;;;;;;;0.60;0.60;;;;;;;;;;6256175;28;20260;-68
2023/08/05 11:25:13;;;;;;;0.50;0.50;;;;;;;;;;6264633;28;20228;-68
2023/08/05 11:28:14;;;;;;;0.47;0.47;;;;;;;;;;6248367;28;20190;-68
2023/08/05 11:31:23;;;;;;;0.50;0.50;;;;;;;;;;6254204;28;20190;-69
2023/08/05 11:34:25;;;;;;;1.17;0.80;;;;;;;;;;6242667;28;20190;-69
2023/08/05 11:37:26;;;;;;;0.77;0.57;;;;;;;;;;6267839;28;20278;-68
2023/08/05 11:40:27;;;;;;;0.60;0.60;;;;;;;;;;6247422;28;20216;-69
2023/08/05 11:43:28;;;;;;;0.77;0.73;;;;;;;;;;6256056;28;20244;-69
2023/08/05 11:46:30;;;;;;;0.50;0.40;;;;;;;;;;6259132;28;20187;-69
2023/08/05 11:49:31;;;;;;;1.27;0.60;;;;;;;;;;6260602;28;20201;-69
2023/08/05 11:52:32;;;;;;;0.50;0.50;;;;;;;;;;6255964;28;20197;-70
2023/08/05 11:55:37;;;;;;;0.87;0.60;;;;;;;;;;6255379;28;20202;-70
2023/08/05 11:58:38;;;;;;;1.33;0.40;;;;;;;;;;6246287;28;20191;-70
2023/08/05 12:01:40;;;;;;;0.63;0.40;;;;;;;;;;6251318;28;20224;-67
2023/08/05 12:04:46;;;;;;;0.40;0.33;;;;;;;;;;6253801;28;20210;-68
2023/08/05 12:07:47;;;;;;;0.50;0.50;;;;;;;;;;6263135;28;20186;-67
2023/08/05 12:10:56;;;;;;;1.80;0.57;;;;;;;;;;6250307;28;20208;-69
2023/08/05 12:13:59;;;;;;;1.67;0.70;;;;;;;;;;6258355;28;20191;-68
2023/08/05 12:17:00;;;;;;;0.40;0.40;;;;;;;;;;6259909;28;20286;-68
2023/08/05 12:20:01;;;;;;;0.50;0.43;;;;;;;;;;6265046;28;20232;-68
2023/08/05 12:23:03;;;;;;;1.10;0.50;;;;;;;;;;6264551;28;20275;-68
2023/08/05 12:26:04;;;;;;;1.47;0.60;;;;;;;;;;6261699;28;20194;-68
2023/08/05 12:29:05;;;;;;;1.53;0.60;;;;;;;;;;6253673;28;20198;-67
2023/08/05 12:32:06;;;;;;;0.50;0.50;;;;;;;;;;6258219;28;20189;-69
2023/08/05 12:35:08;;;;;;;0.53;0.53;;;;;;;;;;6253885;28;20226;-67
2023/08/05 12:38:09;;;;;;;1.43;0.50;;;;;;;;;;6265792;28;20186;-68
2023/08/05 12:41:11;;;;;;;1.50;0.70;;;;;;;;;;6263835;28;20295;-67
2023/08/05 12:44:12;;;;;;;0.93;0.50;;;;;;;;;;6254943;28;20215;-67
2023/08/05 12:47:13;;;;;;;1.97;0.63;;;;;;;;;;6255773;28;20225;-67
2023/08/05 12:50:14;;;;;;;2.10;0.73;;;;;;;;;;6254479;28;20189;-67
2023/08/05 12:53:15;;;;;;;2.73;0.87;;;;;;;;;;6253372;28;20272;-68
2023/08/05 12:56:16;;;;;;;2.27;0.90;;;;;;;;;;6248095;28;20276;-67
2023/08/05 12:59:17;;;;;;;1.43;0.80;;;;;;;;;;6260140;28;20201;-67
2023/08/05 13:02:21;;;;;;;0.57;0.57;;;;;;;;;;6258088;28;20229;-66
2023/08/05 13:05:22;;;;;;;0.93;0.70;;;;;;;;;;6259460;28;20187;-66
2023/08/05 13:08:23;;;;;;;0.80;0.60;;;;;;;;;;6254756;28;20189;-66
2023/08/05 13:11:24;;;;;;;1.10;1.00;;;;;;;;;;6242673;28;20192;-66
2023/08/05 13:14:25;;;;;;;2.13;1.10;;;;;;;;;;6263916;28;20193;-66
2023/08/05 13:17:26;;;;;;;0.90;0.70;;;;;;;;;;6252391;28;20198;-67
2023/08/05 13:20:29;;;;;;;0.90;0.80;;;;;;;;;;6245606;28;20197;-69
2023/08/05 13:23:30;;;;;;;1.27;1.10;;;;;;;;;;6260334;28;20279;-68
2023/08/05 13:26:32;;;;;;;0.97;0.90;;;;;;;;;;6256894;28;20181;-68
2023/08/05 13:29:33;;;;;;;1.13;0.90;;;;;;;;;;6257426;28;20205;-68
2023/08/05 13:32:34;;;;;;;1.70;1.10;;;;;;;;;;6247916;28;20233;-68
2023/08/05 13:35:35;;;;;;;0.80;0.70;;;;;;;;;;6243499;28;20200;-69
2023/08/05 13:38:36;;;;;;;1.83;0.90;;;;;;;;;;6259895;28;20237;-69
2023/08/05 13:41:37;;;;;;;3.23;0.63;;;;;;;;;;6245669;28;20210;-69
2023/08/05 13:44:38;;;;;;;2.10;0.87;;;;;;;;;;6258106;28;20213;-68
2023/08/05 13:47:39;;;;;;;0.60;0.60;;;;;;;;;;6247919;28;20200;-63
2023/08/05 13:50:59;;;;;;;0.60;0.60;;;;;;;;;;6250831;28;20281;-64
2023/08/05 13:54:00;;;;;;;1.00;0.50;;;;;;;;;;6250353;28;20253;-66
2023/08/05 13:57:02;;;;;;;2.27;0.70;;;;;;;;;;6263411;28;20194;-68
2023/08/05 14:00:03;;;;;;;1.87;0.53;;;;;;;;;;6248943;28;20198;-65
2023/08/05 14:03:04;;;;;;;0.60;0.57;;;;;;;;;;6267152;28;20210;-64
2023/08/05 14:06:06;;;;;;;0.57;0.57;;;;;;;;;;6257822;28;20281;-64
2023/08/05 14:09:07;;;;;;;2.77;0.57;;;;;;;;;;6267259;28;20193;-64
2023/08/05 14:12:09;;;;;;;2.93;0.90;;;;;;;;;;6249754;28;20711;-63
2023/08/05 14:15:10;;;;;;;6.00;0.70;;;;;;;;;;6256501;28;20188;-64
2023/08/05 14:18:11;;;;;;;0.90;0.70;;;;;;;;;;6245025;28;20246;-64
2023/08/05 14:21:12;;;;;;;0.70;0.60;;;;;;;;;;6257709;28;20232;-63
2023/08/05 14:24:13;;;;;;;1.00;0.63;;;;;;;;;;6253929;28;20221;-63
2023/08/05 14:27:14;;;;;;;0.37;0.37;;;;;;;;;;6252168;28;20216;-63
2023/08/05 14:30:16;;;;;;;0.87;0.60;;;;;;;;;;6261621;28;20281;-64
2023/08/05 14:33:17;;;;;;;2.47;0.77;;;;;;;;;;6270345;28;20195;-64
2023/08/05 14:36:18;;;;;;;2.47;0.60;;;;;;;;;;6260443;28;20218;-64
2023/08/05 14:39:20;;;;;;;0.40;0.40;;;;;;;;;;6254425;28;20192;-64
2023/08/05 14:42:21;;;;;;;1.33;0.60;;;;;;;;;;6236748;28;20205;-64
2023/08/05 14:45:23;;;;;;;1.57;0.63;;;;;;;;;;6248297;28;20201;-65
2023/08/05 14:48:24;;;;;;;0.60;0.60;;;;;;;;;;6239068;28;20221;-65
2023/08/05 14:51:25;;;;;;;0.50;0.50;;;;;;;;;;6254530;28;20194;-65
2023/08/05 14:54:26;;;;;;;0.80;0.67;;;;;;;;;;6248210;28;20195;-64
2023/08/05 14:57:27;;;;;;;0.80;0.63;;;;;;;;;;6248939;28;20186;-65
2023/08/05 15:00:29;;;;;;;1.90;0.73;;;;;;;;;;6251018;28;20193;-64
2023/08/05 15:03:33;;;;;;;3.27;0.90;;;;;;;;;;6246011;28;20218;-65
2023/08/05 15:06:34;;;;;;;2.03;0.70;;;;;;;;;;6266513;28;20186;-65
2023/08/05 15:09:35;;;;;;;1.97;0.80;;;;;;;;;;6249523;28;20193;-64
2023/08/05 15:12:36;;;;;;;1.03;0.53;;;;;;;;;;6253647;28;20186;-65
2023/08/05 15:15:37;;;;;;;1.60;0.60;;;;;;;;;;6254695;28;20202;-65
2023/08/05 15:18:38;;;;;;;3.00;0.93;;;;;;;;;;6241784;28;20198;-65
2023/08/05 15:21:39;;;;;;;0.80;0.70;;;;;;;;;;6249414;28;20249;-66
2023/08/05 15:24:40;;;;;;;0.70;0.70;;;;;;;;;;6240132;28;20217;-65
2023/08/05 15:27:41;;;;;;;0.60;0.60;;;;;;;;;;6243344;28;20197;-65
2023/08/05 15:30:42;;;;;;;0.53;0.53;;;;;;;;;;6243341;28;20201;-65
2023/08/05 15:33:43;;;;;;;0.53;0.53;;;;;;;;;;6250271;28;20280;-65
2023/08/05 15:36:44;;;;;;;0.60;0.57;;;;;;;;;;6258411;28;20192;-65
2023/08/05 15:39:45;;;;;;;0.50;0.50;;;;;;;;;;6238917;28;20198;-64
2023/08/05 15:42:46;;;;;;;1.73;0.70;;;;;;;;;;6247914;28;20233;-66
2023/08/05 15:45:57;;;;;;;0.60;0.60;;;;;;;;;;6250574;28;20197;-65
2023/08/05 15:48:58;;;;;;;1.57;0.40;;;;;;;;;;6261365;28;20197;-65
2023/08/05 15:51:59;;;;;;;0.70;0.70;;;;;;;;;;6261661;28;20214;-65
2023/08/05 15:55:01;;;;;;;0.97;0.67;;;;;;;;;;6268923;28;20194;-65
2023/08/05 15:58:02;;;;;;;0.80;0.40;;;;;;;;;;6266265;28;20207;-65
2023/08/05 16:01:04;;;;;;;0.80;0.60;;;;;;;;;;6259086;28;20191;-65
2023/08/05 16:04:06;;;;;;;2.43;0.93;;;;;;;;;;6260988;28;20244;-65
2023/08/05 16:07:08;;;;;;;0.67;0.60;;;;;;;;;;6248695;28;20220;-64
2023/08/05 16:10:10;;;;;;;0.37;0.37;;;;;;;;;;6268932;28;20198;-64
2023/08/05 16:13:11;;;;;;;1.33;0.50;;;;;;;;;;6263751;28;20186;-64
2023/08/05 16:16:15;;;;;;;0.40;0.40;;;;;;;;;;6256833;28;20221;-64
2023/08/05 16:19:19;;;;;;;0.60;0.50;;;;;;;;;;6254017;28;20264;-64
2023/08/05 16:22:21;;;;;;;0.87;0.70;;;;;;;;;;6260322;28;20296;-64
2023/08/05 16:25:23;;;;;;;1.07;0.90;;;;;;;;;;6275473;28;20218;-64
2023/08/05 16:28:24;;;;;;;0.60;0.60;;;;;;;;;;6256359;28;20210;-65
2023/08/05 16:31:25;;;;;;;0.93;0.73;;;;;;;;;;6264532;28;20225;-65
2023/08/05 16:34:26;;;;;;;2.33;1.53;;;;;;;;;;6252153;28;20229;-65
2023/08/05 16:37:27;;;;;;;2.47;1.73;;;;;;;;;;6269415;28;20212;-65
2023/08/05 16:40:29;;;;;;;1.90;1.40;;;;;;;;;;6255044;28;20201;-65
2023/08/05 16:43:30;;;;;;;2.03;0.97;;;;;;;;;;6252581;28;20281;-64
2023/08/05 16:46:31;;;;;;;1.70;1.00;;;;;;;;;;6262267;28;20250;-64
2023/08/05 16:49:33;;;;;;;2.60;1.07;;;;;;;;;;6245867;28;20232;-65
2023/08/05 16:52:34;;;;;;;2.13;1.20;;;;;;;;;;6246203;28;20198;-65
2023/08/05 16:55:35;;;;;;;0.83;0.80;;;;;;;;;;6254184;28;20246;-64
2023/08/05 16:58:37;;;;;;;2.50;1.10;;;;;;;;;;6257278;28;20187;-64
2023/08/05 17:01:38;;;;;;;2.67;1.73;;;;;;;;;;6259173;28;20185;-64
2023/08/05 17:04:39;;;;;;;1.27;1.00;;;;;;;;;;6253984;28;20218;-64
2023/08/05 17:07:41;;;;;;;0.83;0.83;;;;;;;;;;6257296;28;20279;-64
2023/08/05 17:10:42;;;;;;;2.80;1.20;;;;;;;;;;6260794;28;20223;-64
2023/08/05 17:13:43;;;;;;;2.30;1.23;;;;;;;;;;6260178;28;20248;-64
2023/08/05 17:16:45;;;;;;;1.43;1.00;;;;;;;;;;6254590;28;20232;-64
2023/08/05 17:19:46;;;;;;;2.90;1.50;;;;;;;;;;6262722;28;20281;-64
2023/08/05 17:22:47;;;;;;;1.37;1.20;;;;;;;;;;6254516;28;20241;-64
2023/08/05 17:25:49;;;;;;;2.83;1.40;;;;;;;;;;6258691;28;20189;-64
2023/08/05 17:28:50;;;;;;;4.63;1.60;;;;;;;;;;6262945;28;20204;-64
2023/08/05 17:31:51;;;;;;;1.50;0.87;;;;;;;;;;6253140;28;20197;-64
2023/08/05 17:34:52;;;;;;;2.80;1.10;;;;;;;;;;6254251;28;20201;-64
2023/08/05 17:37:53;;;;;;;1.97;1.23;;;;;;;;;;6259536;28;20186;-64
2023/08/05 17:40:55;;;;;;;3.00;1.07;;;;;;;;;;6241975;28;20221;-64
2023/08/05 17:43:56;;;;;;;1.67;1.30;;;;;;;;;;6256927;28;20268;-64
2023/08/05 17:46:57;;;;;;;2.17;1.13;;;;;;;;;;6256795;28;20202;-64
2023/08/05 17:49:58;;;;;;;3.03;1.40;;;;;;;;;;6257685;28;20186;-64
2023/08/05 17:52:59;;;;;;;3.47;1.30;;;;;;;;;;6254667;28;20194;-63
2023/08/05 17:56:01;;;;;;;3.83;1.40;;;;;;;;;;6263388;28;20202;-64
2023/08/05 17:59:02;;;;;;;3.10;1.77;;;;;;;;;;6274407;28;20306;-64
2023/08/05 18:02:03;;;;;;;5.60;1.70;;;;;;;;;;6261637;28;20213;-64
2023/08/05 18:05:05;;;;;;;3.03;1.70;;;;;;;;;;6260080;28;20218;-64
2023/08/05 18:08:06;;;;;;;3.80;1.40;;;;;;;;;;6254340;28;20205;-63
2023/08/05 18:11:07;;;;;;;4.97;1.93;;;;;;;;;;6257754;28;20193;-64